الصفحة الرئيسية
METAR-TAF:

METAR-TAF

مطار :

Aoba Island, فانواتو

دائرة عرض: 15-18-24S, خط طول: 167-58-02E, ارتفاع: 51 متر

METAR: مفقودة

زمن: 02:22 (15:22 UTC)

توقعات

تاريخ ووقت الإصدار 17ساعات و 2 دقيقة قبل الساعة 22:20UTC
التوقعات صالحة من11 الساعة 00 UTC إلى 11 الساعة 24 UTC
ريح 1 عقدةمن اتجاهات متغيرة
الرؤية: 9000 متر
غيوم متفرقة على ارتفاع 2000 قدم
غيوم مفككة على ارتفاع 11000 قدم
غيوم قليلة على ارتفاع 800 قدم
غيوم مفككة على ارتفاع 1800 قدم
ملبد بالغيوم على ارتفاع 10000 قدم
زخات من المطر

TAF: NVSG 102220Z 1100/1124 VRB01KT 9999 SCT020 BKN110 INTER 1100/1106 9000 SHRA FEW008 BKN018 OVC100

أرصاد الطقس والتوقعات من أكثر من 4000 مطار (تقارير الطقس للمطار METAR والتنبؤ بالطقس بالمطارTAF).

المحطات المتاحة هي النقط الصفراء والحمراء على الخريطة.

حرك المؤشر فوق النقطة لمعرفة اسم المحطة.

ثم انقر لمعرفة أرصاد وتوقعات الطقس.

لتغيير الخارطة: اضغط على الأزرار الخضراء مع رمز الصليب الأسود للتكبير. على الزر الأخضر مع شرطة للتصغير، أو على الأسهم الخضراء للخرائط المجاورة.


METAR-TAF: